Time;durP1;ratioP1;P1;durP2;ratioP2;P2;SDS_P1;SDS_P2;PMS_P1;PMS_P2;Temp;Humidity;BMP_temperature;BMP_pressure;BME280_temperature;BME280_humidity;BME280_pressure;Samples;Min_cycle;Max_cycle;Signal;HPM_P1;HPM_P2
2023/04/01 00:00:11;;;;;;;;;0.67;0.67;;;;;15.99;100.00;99990.75;4968604;28;45178;-79
2023/04/01 00:02:36;;;;;;;;;1.00;1.00;;;;;16.16;100.00;99994.84;4984139;28;45262;-79
2023/04/01 00:05:02;;;;;;;;;3.50;0.50;;;;;16.19;100.00;100000.78;4982639;28;46661;-80
2023/04/01 00:07:27;;;;;;;;;0.00;0.00;;;;;15.84;100.00;99972.53;4983312;28;45867;-79
2023/04/01 00:09:53;;;;;;;;;0.67;0.67;;;;;15.97;100.00;99988.22;4968615;28;45143;-79
2023/04/01 00:12:18;;;;;;;;;1.33;0.00;;;;;15.96;100.00;99990.09;4967974;28;45226;-79
2023/04/01 00:14:44;;;;;;;;;1.00;1.00;;;;;16.03;100.00;99964.63;4968091;28;46432;-79
2023/04/01 00:17:10;;;;;;;;;0.00;0.00;;;;;16.14;100.00;99978.63;4966605;28;45316;-80
2023/04/01 00:19:35;;;;;;;;;1.00;1.00;;;;;16.09;100.00;99980.25;4967775;28;45364;-79
2023/04/01 00:22:01;;;;;;;;;0.00;0.00;;;;;16.10;100.00;99977.31;4967430;28;46135;-79
2023/04/01 00:24:26;;;;;;;;;1.67;1.67;;;;;16.01;100.00;99981.25;4967758;28;45337;-79
2023/04/01 00:26:52;;;;;;;;;0.00;0.00;;;;;15.58;100.00;99983.31;4967866;28;45496;-79
2023/04/01 00:29:17;;;;;;;;;2.67;1.00;;;;;16.04;100.00;99988.25;4967790;28;45395;-79
2023/04/01 00:31:42;;;;;;;;;3.00;1.33;;;;;15.95;100.00;99991.16;4966787;28;45412;-77
2023/04/01 00:34:07;;;;;;;;;0.00;0.00;;;;;15.79;100.00;99987.88;4967498;28;46591;-80
2023/04/01 00:36:33;;;;;;;;;1.33;0.00;;;;;15.93;100.00;99984.16;4968012;28;45367;-78
2023/04/01 00:38:59;;;;;;;;;3.67;1.00;;;;;16.13;100.00;99990.63;4983395;28;45261;-80
2023/04/01 00:41:25;;;;;;;;;5.33;2.00;;;;;15.89;100.00;99986.47;4967528;28;45405;-80
2023/04/01 00:43:51;;;;;;;;;0.00;0.00;;;;;15.79;100.00;99985.97;4980949;28;46190;-77
2023/04/01 00:46:16;;;;;;;;;1.00;0.67;;;;;15.51;100.00;99972.28;4967709;28;45400;-79
2023/04/01 00:48:50;;;;;;;;;2.00;2.00;;;;;15.68;100.00;99974.75;4984017;28;45340;-79
2023/04/01 00:51:20;;;;;;;;;0.00;0.00;;;;;15.83;100.00;99998.25;4968721;28;45408;-80
2023/04/01 00:53:49;;;;;;;;;0.00;0.00;;;;;15.88;100.00;100000.38;4968760;28;45423;-79
2023/04/01 00:56:26;;;;;;;;;1.00;1.00;;;;;15.94;100.00;99974.91;4967115;28;45445;-79
2023/04/01 00:58:59;;;;;;;;;2.67;1.67;;;;;15.85;100.00;99985.16;4982609;28;45237;-79
2023/04/01 01:01:25;;;;;;;;;3.00;1.00;;;;;15.85;100.00;99987.09;4970873;28;45353;-78
2023/04/01 01:03:51;;;;;;;;;1.33;0.33;;;;;15.82;100.00;99995.69;5008438;28;46874;-80
2023/04/01 01:06:34;;;;;;;;;1.33;1.33;;;;;15.91;100.00;99989.03;4998140;28;45554;-79
2023/04/01 01:09:07;;;;;;;;;1.67;1.67;;;;;15.51;100.00;99993.31;4967005;28;45468;-78
2023/04/01 01:12:16;;;;;;;;;0.00;0.00;;;;;15.83;100.00;99981.81;4965842;28;45508;-78
2023/04/01 01:15:04;;;;;;;;;1.67;0.33;;;;;15.76;100.00;99991.88;4980698;28;46440;-79
2023/04/01 01:17:43;;;;;;;;;0.67;0.67;;;;;15.79;100.00;100002.41;4964662;28;45641;-78
2023/04/01 01:20:35;;;;;;;;;2.33;2.33;;;;;15.87;100.00;99994.03;4966056;28;45320;-78
2023/04/01 01:23:16;;;;;;;;;1.00;1.00;;;;;15.85;100.00;99995.31;4966370;28;45328;-78
2023/04/01 01:26:20;;;;;;;;;2.00;1.00;;;;;15.73;100.00;100007.84;4964087;28;47205;-78
2023/04/01 01:29:07;;;;;;;;;3.00;2.00;;;;;15.83;100.00;99992.75;4964630;28;45396;-78
2023/04/01 01:31:41;;;;;;;;;1.67;0.67;;;;;15.82;100.00;99998.44;4966227;28;45240;-78
2023/04/01 01:34:32;;;;;;;;;0.67;0.00;;;;;15.80;100.00;99992.31;4964833;28;45288;-78
2023/04/01 01:37:03;;;;;;;;;1.00;1.00;;;;;15.74;100.00;99983.00;4964388;28;47068;-77
2023/04/01 01:39:33;;;;;;;;;2.00;1.00;;;;;15.80;100.00;99986.81;4964479;28;45235;-78
2023/04/01 01:42:04;;;;;;;;;2.00;0.00;;;;;15.69;100.00;99970.97;4965885;28;45333;-78
2023/04/01 01:44:31;;;;;;;;;0.00;0.00;;;;;15.48;100.00;99991.84;4966870;28;45543;-78
2023/04/01 01:46:58;;;;;;;;;1.00;0.00;;;;;15.66;100.00;99974.09;4965960;28;45308;-78
2023/04/01 01:49:26;;;;;;;;;0.00;0.00;;;;;15.58;100.00;100003.31;4965889;28;45342;-78
2023/04/01 01:51:51;;;;;;;;;2.00;0.00;;;;;15.61;100.00;100002.09;4965522;28;45248;-78
2023/04/01 01:54:17;;;;;;;;;1.00;0.00;;;;;15.54;100.00;100015.72;4964802;28;45576;-78
2023/04/01 01:56:46;;;;;;;;;2.67;1.00;;;;;15.51;100.00;100005.13;4965743;28;46449;-78
2023/04/01 01:59:15;;;;;;;;;2.33;0.00;;;;;15.48;100.00;100005.53;4980063;28;45922;-78
2023/04/01 02:01:45;;;;;;;;;0.67;0.67;;;;;15.30;100.00;100007.91;4966848;28;45281;-78
2023/04/01 02:04:13;;;;;;;;;2.00;0.00;;;;;15.13;100.00;100023.72;4966084;28;45427;-78
2023/04/01 02:06:44;;;;;;;;;0.00;0.00;;;;;15.21;100.00;100028.22;4963609;28;46975;-79
2023/04/01 02:09:11;;;;;;;;;1.00;1.00;;;;;15.40;100.00;100015.78;4964195;28;45521;-79
2023/04/01 02:11:43;;;;;;;;;2.00;1.00;;;;;15.66;100.00;100017.91;4965470;28;45359;-78
2023/04/01 02:14:27;;;;;;;;;1.00;1.00;;;;;15.41;100.00;100010.13;4964178;28;45239;-78
2023/04/01 02:16:59;;;;;;;;;4.00;1.00;;;;;15.33;100.00;100029.41;4965043;28;45418;-79
2023/04/01 02:19:31;;;;;;;;;3.00;0.00;;;;;15.62;100.00;100027.56;4963721;28;45346;-78
2023/04/01 02:22:02;;;;;;;;;2.33;0.00;;;;;15.34;100.00;100008.38;4963820;28;45421;-79
2023/04/01 02:24:31;;;;;;;;;0.00;0.00;;;;;15.54;100.00;100001.19;4964180;28;45486;-78
2023/04/01 02:26:57;;;;;;;;;4.00;1.00;;;;;15.18;100.00;100020.41;4964948;28;45333;-79
2023/04/01 02:29:25;;;;;;;;;1.00;0.00;;;;;15.37;100.00;100027.13;4965168;28;45313;-78
2023/04/01 02:31:52;;;;;;;;;0.00;0.00;;;;;15.50;100.00;100041.75;4965714;28;45333;-79
2023/04/01 02:34:19;;;;;;;;;2.33;1.00;;;;;15.60;100.00;100029.66;4965876;28;45459;-79
2023/04/01 02:36:45;;;;;;;;;1.33;1.00;;;;;15.31;100.00;100026.00;4963466;28;48288;-78
2023/04/01 02:39:10;;;;;;;;;3.00;1.67;;;;;14.92;100.00;100042.00;4965063;28;45460;-78
2023/04/01 02:41:41;;;;;;;;;1.33;1.00;;;;;15.17;100.00;100029.66;4965292;28;45330;-78
2023/04/01 02:44:07;;;;;;;;;1.00;1.00;;;;;15.15;100.00;100018.06;4965581;28;45595;-79
2023/04/01 02:46:32;;;;;;;;;3.33;1.00;;;;;15.03;100.00;100036.06;4963156;28;46384;-78
2023/04/01 02:48:58;;;;;;;;;2.00;0.00;;;;;14.72;100.00;100015.31;4963724;28;45350;-78
2023/04/01 02:51:23;;;;;;;;;2.00;1.33;;;;;14.74;100.00;100037.84;4964459;28;45178;-79
2023/04/01 02:53:48;;;;;;;;;0.33;0.33;;;;;14.89;100.00;100029.59;4965200;28;45241;-78
2023/04/01 02:56:14;;;;;;;;;0.67;0.67;;;;;15.00;100.00;100044.63;4964635;28;46589;-78
2023/04/01 02:58:39;;;;;;;;;0.33;0.33;;;;;15.00;100.00;100042.75;4964767;28;45257;-79
2023/04/01 03:01:05;;;;;;;;;1.00;1.00;;;;;15.10;100.00;100067.91;4964516;28;45219;-78
2023/04/01 03:03:30;;;;;;;;;2.67;0.00;;;;;15.04;100.00;100048.69;4965057;28;45295;-78
2023/04/01 03:05:58;;;;;;;;;1.67;1.00;;;;;15.25;100.00;100036.91;4965643;28;45436;-79
2023/04/01 03:08:24;;;;;;;;;1.00;1.00;;;;;15.23;100.00;100050.78;4975396;28;45349;-79
2023/04/01 03:10:49;;;;;;;;;1.00;1.00;;;;;15.21;100.00;100047.38;4964172;28;45380;-79
2023/04/01 03:13:14;;;;;;;;;4.00;1.00;;;;;15.45;100.00;100041.50;4963460;28;45615;-79
2023/04/01 03:15:40;;;;;;;;;3.33;0.00;;;;;15.24;100.00;100052.47;4979550;28;46466;-79
2023/04/01 03:18:05;;;;;;;;;1.00;1.00;;;;;15.25;100.00;100062.38;4965272;28;45191;-79
2023/04/01 03:20:30;;;;;;;;;0.33;0.33;;;;;15.08;100.00;100059.03;4965363;28;45368;-79
2023/04/01 03:22:56;;;;;;;;;0.67;0.67;;;;;14.99;100.00;100070.28;4963923;28;45226;-79
2023/04/01 03:25:21;;;;;;;;;0.00;0.00;;;;;14.94;100.00;100046.25;4964433;28;46582;-79
2023/04/01 03:27:47;;;;;;;;;1.00;0.00;;;;;15.07;100.00;100062.81;4980054;28;45257;-79
2023/04/01 03:30:12;;;;;;;;;0.00;0.00;;;;;14.82;100.00;100068.84;4965598;28;45329;-80
2023/04/01 03:32:37;;;;;;;;;0.00;0.00;;;;;14.89;100.00;100056.94;4980262;28;45573;-79
2023/04/01 03:35:04;;;;;;;;;1.00;1.00;;;;;14.67;100.00;100077.94;4966168;28;47990;-79
2023/04/01 03:37:30;;;;;;;;;2.00;0.00;;;;;14.96;100.00;100076.16;4966731;28;45334;-79
2023/04/01 03:39:55;;;;;;;;;0.33;0.33;;;;;15.04;100.00;100081.53;4967849;28;45309;-80
2023/04/01 03:42:20;;;;;;;;;0.00;0.00;;;;;15.21;100.00;100080.22;4968554;28;45290;-79
2023/04/01 03:44:46;;;;;;;;;0.00;0.00;;;;;15.19;100.00;100099.56;4966370;28;47217;-78
2023/04/01 03:47:11;;;;;;;;;3.67;0.00;;;;;14.98;100.00;100080.38;4967611;28;45309;-79
2023/04/01 03:49:36;;;;;;;;;2.00;1.00;;;;;15.01;100.00;100101.91;4966091;28;45810;-79
2023/04/01 03:52:02;;;;;;;;;0.67;0.00;;;;;15.09;100.00;100095.47;4968056;28;45260;-79
2023/04/01 03:54:27;;;;;;;;;1.00;0.67;;;;;15.03;100.00;100090.75;4967244;28;45503;-79
2023/04/01 03:56:53;;;;;;;;;1.00;1.00;;;;;15.30;100.00;100087.25;4967920;28;45385;-79
2023/04/01 03:59:18;;;;;;;;;1.67;0.67;;;;;15.15;100.00;100091.94;4966364;28;45838;-79
2023/04/01 04:01:45;;;;;;;;;0.67;0.67;;;;;15.17;100.00;100078.94;4967888;28;45622;-79
2023/04/01 04:04:12;;;;;;;;;2.00;0.00;;;;;15.14;100.00;100077.41;4967095;28;46811;-79
2023/04/01 04:06:38;;;;;;;;;1.00;1.00;;;;;15.31;100.00;100085.38;4967152;28;45448;-79
2023/04/01 04:09:03;;;;;;;;;0.67;0.67;;;;;15.52;100.00;100091.69;4967647;28;45291;-79
2023/04/01 04:11:31;;;;;;;;;2.67;1.00;;;;;15.44;100.00;100093.72;4966285;28;45175;-79
2023/04/01 04:13:56;;;;;;;;;1.00;0.00;;;;;15.55;100.00;100090.50;4966803;28;45397;-80
2023/04/01 04:16:21;;;;;;;;;2.00;0.00;;;;;15.55;100.00;100090.50;4998073;28;48621;-79
2023/04/01 04:18:46;;;;;;;;;1.00;1.00;;;;;15.49;100.00;100093.97;4998126;28;45326;-79
2023/04/01 04:21:13;;;;;;;;;4.67;1.67;;;;;15.35;100.00;100093.00;4982097;28;45324;-79
2023/04/01 04:23:39;;;;;;;;;3.33;1.00;;;;;15.58;100.00;100098.31;4979600;28;46367;-78
2023/04/01 04:26:07;;;;;;;;;0.00;0.00;;;;;15.36;100.00;100105.63;4965111;28;45456;-79
2023/04/01 04:28:33;;;;;;;;;2.67;1.67;;;;;15.49;100.00;100107.66;4966705;28;45167;-78
2023/04/01 04:30:59;;;;;;;;;2.00;2.00;;;;;15.52;100.00;100102.66;4973422;28;45265;-78
2023/04/01 04:33:24;;;;;;;;;1.33;1.33;;;;;15.30;100.00;100100.94;4971450;28;47558;-78
2023/04/01 04:35:51;;;;;;;;;1.00;1.00;;;;;15.19;100.00;100115.97;4976575;28;45632;-78
2023/04/01 04:38:17;;;;;;;;;1.67;0.00;;;;;15.02;100.00;100109.06;4965247;28;45378;-78
2023/04/01 04:40:43;;;;;;;;;0.00;0.00;;;;;15.38;100.00;100102.72;4973290;28;45333;-78
2023/04/01 04:43:14;;;;;;;;;3.67;2.00;;;;;15.41;100.00;100111.41;4969970;28;46577;-78
2023/04/01 04:45:40;;;;;;;;;1.33;1.33;;;;;15.04;100.00;100103.41;4966263;28;45522;-79
2023/04/01 04:48:08;;;;;;;;;1.33;0.00;;;;;15.12;100.00;100111.50;4964835;28;45385;-79
2023/04/01 04:50:33;;;;;;;;;2.00;0.00;;;;;15.23;100.00;100113.72;4966745;28;45360;-79
2023/04/01 04:52:58;;;;;;;;;1.67;0.67;;;;;15.42;100.00;100123.16;4966164;28;45432;-79
2023/04/01 04:55:24;;;;;;;;;1.00;1.00;;;;;15.49;100.00;100121.34;4966186;28;45235;-79
2023/04/01 04:57:49;;;;;;;;;0.00;0.00;;;;;15.30;100.00;100128.31;4982118;28;45467;-79
2023/04/01 05:00:15;;;;;;;;;3.00;0.67;;;;;15.24;100.00;100109.94;4978617;28;45427;-79
2023/04/01 05:02:40;;;;;;;;;0.67;0.00;;;;;15.29;100.00;100121.16;4964315;28;48233;-79
2023/04/01 05:05:06;;;;;;;;;2.33;2.00;;;;;15.20;100.00;100112.19;4964643;28;50512;-80
2023/04/01 05:07:32;;;;;;;;;2.00;1.00;;;;;15.47;100.00;100124.31;4980683;28;45357;-79
2023/04/01 05:09:57;;;;;;;;;2.67;1.00;;;;;15.62;100.00;100132.47;4966637;28;45234;-79
2023/04/01 05:12:23;;;;;;;;;2.67;1.00;;;;;15.19;100.00;100109.69;4980686;28;47161;-79
2023/04/01 05:14:48;;;;;;;;;2.00;1.33;;;;;15.67;100.00;100123.66;4966401;28;45248;-79
2023/04/01 05:17:13;;;;;;;;;1.33;1.00;;;;;15.51;100.00;100130.22;4965098;28;45288;-79
2023/04/01 05:19:39;;;;;;;;;3.00;1.00;;;;;15.43;100.00;100139.41;4973499;28;45596;-79
2023/04/01 05:22:05;;;;;;;;;2.00;0.00;;;;;15.33;100.00;100138.03;4971495;28;45429;-79
2023/04/01 05:24:31;;;;;;;;;2.00;0.00;;;;;15.49;100.00;100138.63;4965842;28;45486;-79
2023/04/01 05:26:58;;;;;;;;;1.00;1.00;;;;;15.56;100.00;100139.56;4965581;28;45339;-79
2023/04/01 05:29:24;;;;;;;;;0.00;0.00;;;;;15.63;100.00;100142.41;4964744;28;45591;-79
2023/04/01 05:31:50;;;;;;;;;1.67;0.00;;;;;15.30;100.00;100117.38;4964262;28;47345;-79
2023/04/01 05:34:15;;;;;;;;;1.33;0.00;;;;;15.31;100.00;100146.44;4980893;28;45712;-79
2023/04/01 05:36:41;;;;;;;;;4.00;1.00;;;;;15.39;100.00;100131.78;4964071;28;45330;-79
2023/04/01 05:39:07;;;;;;;;;3.00;1.00;;;;;15.63;100.00;100134.19;4973183;28;45296;-79
2023/04/01 05:41:35;;;;;;;;;1.00;1.00;;;;;15.65;100.00;100153.13;4971423;28;46400;-79
2023/04/01 05:44:00;;;;;;;;;0.67;0.67;;;;;15.43;100.00;100155.81;4964322;28;45858;-79
2023/04/01 05:46:25;;;;;;;;;1.67;1.00;;;;;15.35;100.00;100149.63;4965073;28;45233;-79
2023/04/01 05:48:51;;;;;;;;;2.00;1.00;;;;;15.29;100.00;100164.94;4966638;28;45368;-79
2023/04/01 05:51:16;;;;;;;;;1.00;1.00;;;;;15.25;100.00;100158.16;4965614;28;45558;-79
2023/04/01 05:53:42;;;;;;;;;3.00;1.33;;;;;15.21;100.00;100162.31;4966138;28;45367;-79
2023/04/01 05:56:09;;;;;;;;;1.00;1.00;;;;;15.26;100.00;100142.59;4966529;28;45342;-79
2023/04/01 05:58:35;;;;;;;;;0.00;0.00;;;;;15.36;100.00;100160.38;4974362;28;45644;-79
2023/04/01 06:01:09;;;;;;;;;0.00;0.00;;;;;15.38;100.00;100163.78;4971976;28;45352;-79
2023/04/01 06:03:34;;;;;;;;;2.33;1.00;;;;;15.57;100.00;100168.66;4966154;28;45396;-79
2023/04/01 06:06:00;;;;;;;;;0.00;0.00;;;;;15.58;100.00;100173.09;4965563;28;45337;-79
2023/04/01 06:08:27;;;;;;;;;1.67;1.00;;;;;15.47;100.00;100183.69;4969683;28;45257;-81
2023/04/01 06:11:05;;;;;;;;;3.00;1.00;;;;;15.37;100.00;100175.78;4967795;28;46437;-79
2023/04/01 06:14:16;;;;;;;;;0.00;0.00;;;;;15.72;100.00;100186.91;5000666;28;45286;-79
2023/04/01 06:17:02;;;;;;;;;2.00;0.00;;;;;15.47;100.00;100200.09;4986523;28;45320;-79
2023/04/01 06:19:39;;;;;;;;;1.67;1.00;;;;;15.23;100.00;100203.16;4981344;28;45233;-80
2023/04/01 06:22:16;;;;;;;;;0.33;0.33;;;;;15.56;100.00;100190.78;4967396;28;47312;-79
2023/04/01 06:25:30;;;;;;;;;1.00;1.00;;;;;15.65;100.00;100200.53;4976369;28;45346;-79
2023/04/01 06:28:27;;;;;;;;;1.00;0.67;;;;;15.60;100.00;100196.69;4989815;28;45360;-80
2023/04/01 06:31:07;;;;;;;;;0.00;0.00;;;;;15.78;100.00;100202.59;4967969;28;45250;-80
2023/04/01 06:33:43;;;;;;;;;1.00;1.00;;;;;15.51;100.00;100213.19;4967379;28;47077;-79
2023/04/01 06:36:21;;;;;;;;;1.00;1.00;;;;;15.69;100.00;100212.81;4968480;28;45258;-79
2023/04/01 06:39:05;;;;;;;;;4.67;1.00;;;;;15.55;100.00;100213.72;4967028;28;46515;-80
2023/04/01 06:42:00;;;;;;;;;0.00;0.00;;;;;15.36;100.00;100219.75;4968006;28;45456;-80
2023/04/01 06:44:44;;;;;;;;;1.00;1.00;;;;;15.53;100.00;100213.91;4976557;28;47776;-80
2023/04/01 06:47:42;;;;;;;;;1.00;1.00;;;;;15.43;100.00;100232.47;4979105;28;45323;-79
2023/04/01 06:50:20;;;;;;;;;0.33;0.33;;;;;15.15;100.00;100215.94;4972452;28;45417;-80
2023/04/01 06:53:07;;;;;;;;;3.00;1.67;;;;;15.46;100.00;100228.53;4968375;28;45296;-79
2023/04/01 06:55:41;;;;;;;;;1.33;0.00;;;;;15.67;100.00;100228.59;4966039;28;47991;-79
2023/04/01 06:58:18;;;;;;;;;0.00;0.00;;;;;15.73;100.00;100224.22;4979933;28;45230;-79
2023/04/01 07:00:48;;;;;;;;;0.33;0.33;;;;;16.16;100.00;100233.28;4968710;28;45232;-79
2023/04/01 07:03:29;;;;;;;;;1.00;1.00;;;;;15.89;100.00;100227.56;4973208;28;45374;-78
2023/04/01 07:06:01;;;;;;;;;1.00;1.00;;;;;16.27;100.00;100224.53;4990781;28;47116;-79
2023/04/01 07:08:29;;;;;;;;;2.00;1.00;;;;;16.28;100.00;100229.81;4970184;28;45999;-79
2023/04/01 07:11:01;;;;;;;;;2.00;1.00;;;;;15.83;100.00;100233.81;4968943;28;45306;-78
2023/04/01 07:13:40;;;;;;;;;2.00;1.00;;;;;15.70;100.00;100238.31;4969520;28;45275;-79
2023/04/01 07:16:17;;;;;;;;;1.00;0.00;;;;;16.24;100.00;100250.44;4968372;28;47464;-79
2023/04/01 07:18:56;;;;;;;;;1.00;1.00;;;;;16.12;100.00;100248.44;4985334;28;45584;-79
2023/04/01 07:21:24;;;;;;;;;3.67;1.00;;;;;15.82;100.00;100229.38;4970249;28;45167;-78
2023/04/01 07:23:51;;;;;;;;;2.00;0.00;;;;;15.36;100.00;100234.28;4969621;28;45570;-79
2023/04/01 07:26:20;;;;;;;;;1.67;0.00;;;;;15.81;100.00;100229.56;4970088;28;45637;-79
2023/04/01 07:28:46;;;;;;;;;0.00;0.00;;;;;15.93;100.00;100223.38;4968975;28;45278;-78
2023/04/01 07:31:34;;;;;;;;;2.33;1.00;;;;;16.43;100.00;100237.13;4971300;28;45223;-79
2023/04/01 07:33:59;;;;;;;;;1.67;0.00;;;;;16.28;100.00;100238.06;4972213;28;45438;-80
2023/04/01 07:36:44;;;;;;;;;1.00;0.33;;;;;16.14;100.00;100241.72;4969919;28;45569;-80
2023/04/01 07:39:32;;;;;;;;;0.00;0.00;;;;;16.05;100.00;100242.03;4987552;28;45253;-79
2023/04/01 07:42:09;;;;;;;;;0.00;0.00;;;;;16.24;100.00;100250.44;4973084;28;45515;-79
2023/04/01 07:44:51;;;;;;;;;2.00;0.00;;;;;15.83;100.00;100227.50;4970242;28;45579;-80
2023/04/01 07:47:19;;;;;;;;;1.00;1.00;;;;;16.45;100.00;100251.44;4974750;28;45725;-79
2023/04/01 07:50:13;;;;;;;;;2.00;1.00;;;;;16.70;100.00;100253.59;4972012;28;45376;-81
2023/04/01 07:52:42;;;;;;;;;2.67;1.00;;;;;16.58;100.00;100246.09;4970830;28;45276;-80
2023/04/01 07:55:17;;;;;;;;;0.00;0.00;;;;;16.06;100.00;100251.97;4972419;28;45612;-79
2023/04/01 07:57:58;;;;;;;;;1.67;0.00;;;;;16.45;100.00;100255.03;4968865;28;45269;-78
2023/04/01 08:00:46;;;;;;;;;1.33;1.00;;;;;17.04;100.00;100244.50;4968816;28;45234;-79
2023/04/01 08:03:33;;;;;;;;;0.00;0.00;;;;;17.03;100.00;100258.44;4975283;28;45566;-78
2023/04/01 08:06:04;;;;;;;;;4.67;1.33;;;;;16.78;100.00;100258.09;4969653;28;45482;-79
2023/04/01 08:08:47;;;;;;;;;2.33;0.67;;;;;16.65;100.00;100258.00;4969601;28;46402;-79
2023/04/01 08:11:27;;;;;;;;;0.00;0.00;;;;;17.07;100.00;100249.63;4968415;28;45395;-79
2023/04/01 08:14:21;;;;;;;;;4.00;1.00;;;;;17.05;100.00;100264.56;4968644;28;45318;-79
2023/04/01 08:16:55;;;;;;;;;1.00;0.00;;;;;16.90;100.00;100270.19;4967323;28;45480;-78
2023/04/01 08:19:51;;;;;;;;;0.67;0.67;;;;;16.64;100.00;100278.25;4964896;28;45415;-79
2023/04/01 08:22:34;;;;;;;;;1.00;1.00;;;;;16.43;100.00;100294.69;4964765;28;45234;-78
2023/04/01 08:25:06;;;;;;;;;2.67;0.00;;;;;16.47;100.00;100274.03;4967395;28;45341;-79
2023/04/01 08:27:39;;;;;;;;;2.00;1.00;;;;;16.99;100.00;100290.94;4981947;28;45589;-79
2023/04/01 08:30:23;;;;;;;;;1.33;0.00;;;;;16.88;100.00;100288.75;4966565;28;46400;-78
2023/04/01 08:32:58;;;;;;;;;0.00;0.00;;;;;16.84;100.00;100309.41;4968361;28;45253;-78
2023/04/01 08:35:37;;;;;;;;;0.00;0.00;;;;;16.58;100.00;100287.22;4966015;28;45320;-78
2023/04/01 08:38:12;;;;;;;;;1.33;1.00;;;;;16.32;100.00;100285.09;4967621;28;45296;-78
2023/04/01 08:40:56;;;;;;;;;0.67;0.67;;;;;16.52;100.00;100301.72;4966838;28;45587;-78
2023/04/01 08:43:31;;;;;;;;;0.00;0.00;;;;;16.17;100.00;100307.09;4966667;28;45374;-78
2023/04/01 08:46:03;;;;;;;;;1.00;1.00;;;;;16.47;100.00;100301.47;4969117;28;45364;-79
2023/04/01 08:48:50;;;;;;;;;2.00;1.00;;;;;15.99;100.00;100314.91;4966040;28;45218;-79
2023/04/01 08:51:53;;;;;;;;;2.00;0.00;;;;;16.00;100.00;100311.09;4964779;28;47092;-80
2023/04/01 08:54:54;;;;;;;;;0.33;0.00;;;;;15.65;100.00;100318.28;4966966;28;45239;-80
2023/04/01 08:57:25;;;;;;;;;0.00;0.00;;;;;16.03;100.00;100304.41;4965327;28;45626;-80
2023/04/01 09:00:00;;;;;;;;;1.00;1.00;;;;;16.36;100.00;100311.91;4966838;28;45443;-80
2023/04/01 09:03:03;;;;;;;;;1.33;0.00;;;;;16.64;100.00;100289.22;4966279;28;45593;-80
2023/04/01 09:06:14;;;;;;;;;3.00;0.00;;;;;16.74;100.00;100308.91;4966719;28;45221;-79
2023/04/01 09:08:59;;;;;;;;;2.00;1.00;;;;;16.75;100.00;100307.84;4965837;28;45597;-80
2023/04/01 09:12:03;;;;;;;;;2.00;2.00;;;;;16.90;100.00;100286.66;4967283;28;45457;-80
2023/04/01 09:15:09;;;;;;;;;1.00;0.00;;;;;16.79;100.00;100275.41;4977486;28;46623;-80
2023/04/01 09:17:58;;;;;;;;;2.00;0.00;;;;;16.81;100.00;100297.97;4965104;28;46356;-80
2023/04/01 09:21:01;;;;;;;;;3.00;1.33;;;;;16.79;100.00;100303.69;4964611;28;45345;-80
2023/04/01 09:23:38;;;;;;;;;1.67;0.33;;;;;16.91;100.00;100299.31;4966882;28;45350;-79
2023/04/01 09:26:06;;;;;;;;;1.00;1.00;;;;;17.15;100.00;100265.06;4964925;28;47264;-79
2023/04/01 09:28:51;;;;;;;;;4.00;3.00;;;;;16.99;100.00;100279.13;4964637;28;45257;-79
2023/04/01 09:31:42;;;;;;;;;0.00;0.00;;;;;16.89;100.00;100287.69;4965676;28;45313;-79
2023/04/01 09:34:25;;;;;;;;;0.00;0.00;;;;;16.94;100.00;100298.94;4981938;28;45262;-80
2023/04/01 09:37:27;;;;;;;;;4.33;3.33;;;;;17.06;100.00;100304.69;4963929;28;46341;-79
2023/04/01 09:40:09;;;;;;;;;1.33;1.33;;;;;17.11;100.00;100305.78;4964232;28;45274;-79
2023/04/01 09:43:03;;;;;;;;;1.00;1.00;;;;;17.17;100.00;100303.31;4965431;28;45323;-79
2023/04/01 09:46:03;;;;;;;;;1.67;1.00;;;;;17.33;100.00;100298.31;4981783;28;45684;-79
2023/04/01 09:49:06;;;;;;;;;0.00;0.00;;;;;17.39;100.00;100313.13;4962860;28;47310;-79
2023/04/01 09:51:52;;;;;;;;;3.00;1.00;;;;;17.63;100.00;100303.56;4963867;28;45820;-79
2023/04/01 09:54:45;;;;;;;;;4.00;2.00;;;;;17.07;100.00;100325.63;4963852;28;45340;-80
2023/04/01 09:57:38;;;;;;;;;4.00;1.00;;;;;17.62;100.00;100312.84;4965734;28;45338;-78
2023/04/01 10:00:27;;;;;;;;;1.00;0.67;;;;;17.57;100.00;100326.31;4963832;28;48426;-78
2023/04/01 10:03:11;;;;;;;;;1.67;1.67;;;;;17.31;100.00;100332.53;4964870;28;45333;-79
2023/04/01 10:06:12;;;;;;;;;2.00;2.00;;;;;17.21;100.00;100321.91;4966104;28;45344;-79
2023/04/01 10:09:12;;;;;;;;;1.00;1.00;;;;;17.04;100.00;100309.53;4986318;28;45544;-79
2023/04/01 10:12:06;;;;;;;;;1.67;1.00;;;;;17.33;100.00;100336.75;4979826;28;47124;-79
2023/04/01 10:14:47;;;;;;;;;2.00;1.00;;;;;17.68;100.00;100334.84;4965551;28;45265;-79
2023/04/01 10:17:31;;;;;;;;;0.00;0.00;;;;;17.59;100.00;100330.56;4996366;28;45257;-79
2023/04/01 10:19:59;;;;;;;;;2.00;0.33;;;;;17.94;100.00;100333.28;4963613;28;45700;-80
2023/04/01 10:23:15;;;;;;;;;0.00;0.00;;;;;18.33;100.00;100322.41;4962941;28;47063;-80
2023/04/01 10:26:01;;;;;;;;;1.00;1.00;;;;;18.34;100.00;100337.81;4963114;28;45527;-80
2023/04/01 10:28:42;;;;;;;;;3.00;1.00;;;;;17.89;94.77;100336.66;4963706;28;45438;-80
2023/04/01 10:31:32;;;;;;;;;3.00;1.67;;;;;18.51;93.11;100333.63;4963627;28;45491;-80
2023/04/01 10:34:15;;;;;;;;;4.67;3.33;;;;;19.38;89.51;100325.09;4964842;28;45410;-79
2023/04/01 10:36:47;;;;;;;;;0.00;0.00;;;;;19.33;80.00;100319.41;4964545;28;45463;-79
2023/04/01 10:39:35;;;;;;;;;2.33;0.00;;;;;19.59;79.22;100320.41;4964021;28;45222;-79
2023/04/01 10:42:13;;;;;;;;;4.00;0.00;;;;;19.71;76.70;100293.88;4963714;28;45310;-78
2023/04/01 10:45:03;;;;;;;;;1.33;0.00;;;;;19.25;76.39;100314.13;4964468;28;45407;-78
2023/04/01 10:47:53;;;;;;;;;0.67;0.67;;;;;19.69;74.16;100324.41;4963211;28;45206;-78
2023/04/01 10:50:56;;;;;;;;;0.00;0.00;;;;;19.56;72.43;100318.09;4964203;28;45424;-78
2023/04/01 10:53:39;;;;;;;;;2.00;1.00;;;;;19.31;72.54;100331.69;4984770;28;45402;-79
2023/04/01 10:56:20;;;;;;;;;0.00;0.00;;;;;19.99;72.62;100318.34;4964237;28;46440;-79
2023/04/01 10:59:04;;;;;;;;;1.00;1.00;;;;;19.61;72.05;100315.53;4963202;28;45382;-78
2023/04/01 11:02:04;;;;;;;;;1.67;1.67;;;;;19.71;70.46;100318.69;4963125;28;45351;-79
2023/04/01 11:04:39;;;;;;;;;2.00;0.00;;;;;19.52;70.29;100333.38;4963453;28;45570;-80
2023/04/01 11:07:30;;;;;;;;;1.67;0.67;;;;;19.33;69.42;100313.91;4964357;28;46887;-80
2023/04/01 11:10:24;;;;;;;;;1.67;1.67;;;;;19.90;70.25;100309.47;4969926;28;46546;-79
2023/04/01 11:13:23;;;;;;;;;1.00;1.00;;;;;20.09;66.07;100314.03;4963062;28;45436;-77
2023/04/01 11:16:16;;;;;;;;;2.00;0.00;;;;;20.12;66.26;100296.19;4963269;28;45281;-78
2023/04/01 11:19:10;;;;;;;;;0.00;0.00;;;;;19.67;65.72;100300.88;4964183;28;45791;-79
2023/04/01 11:22:16;;;;;;;;;1.33;1.00;;;;;19.38;67.29;100299.47;4996528;28;45501;-79
2023/04/01 11:25:20;;;;;;;;;3.67;1.00;;;;;20.17;67.89;100299.97;4964506;28;45236;-79
2023/04/01 11:27:49;;;;;;;;;1.33;1.00;;;;;20.29;68.41;100302.03;4965776;28;45578;-79
2023/04/01 11:30:36;;;;;;;;;2.00;1.00;;;;;20.67;67.17;100293.72;4962174;28;47301;-78
2023/04/01 11:33:36;;;;;;;;;2.00;2.00;;;;;20.77;65.04;100299.56;4963874;28;45308;-78
2023/04/01 11:36:08;;;;;;;;;2.00;1.00;;;;;19.86;65.04;100297.22;5000601;28;45276;-78
2023/04/01 11:38:58;;;;;;;;;5.00;0.67;;;;;20.27;64.62;100293.97;5001226;28;45380;-78
2023/04/01 11:41:37;;;;;;;;;0.00;0.00;;;;;20.15;63.58;100312.31;4984157;28;48113;-77
2023/04/01 11:44:20;;;;;;;;;0.00;0.00;;;;;19.91;63.44;100296.53;4985122;28;45341;-78
2023/04/01 11:47:18;;;;;;;;;0.00;0.00;;;;;19.86;65.23;100301.88;4960789;28;45395;-79
2023/04/01 11:50:06;;;;;;;;;0.67;0.00;;;;;20.02;63.67;100302.19;4964305;28;45279;-78
2023/04/01 11:52:56;;;;;;;;;0.00;0.00;;;;;20.04;62.29;100319.38;4966252;28;47065;-79
2023/04/01 11:55:43;;;;;;;;;0.67;0.67;;;;;19.45;62.05;100327.84;4965756;28;45372;-79
2023/04/01 11:58:27;;;;;;;;;2.33;1.00;;;;;20.05;62.41;100315.53;4966639;28;45325;-79